createdAt,value
2023-05-02T00:00:11.196Z,4.90
2023-05-02T00:01:11.155Z,4.90
2023-05-02T00:02:11.195Z,6.10
2023-05-02T00:03:11.344Z,4.70
2023-05-02T00:04:11.198Z,7.10
2023-05-02T00:05:11.135Z,10.60
2023-05-02T00:06:11.141Z,6.80
2023-05-02T00:07:11.113Z,9.70
2023-05-02T00:08:11.111Z,10.10
2023-05-02T00:09:11.107Z,15.30
2023-05-02T00:10:11.084Z,16.80
2023-05-02T00:11:11.063Z,7.80
2023-05-02T00:12:11.078Z,7.40
2023-05-02T00:13:11.103Z,7.40
2023-05-02T00:14:11.053Z,7.90
2023-05-02T00:15:11.024Z,9.90
2023-05-02T00:16:11.014Z,10.70
2023-05-02T00:17:11.044Z,9.80
2023-05-02T00:18:11.010Z,7.50
2023-05-02T00:19:11.004Z,8.70
2023-05-02T00:20:10.980Z,8.70
2023-05-02T00:21:10.958Z,8.00
2023-05-02T00:22:10.960Z,7.60
2023-05-02T00:23:10.939Z,7.80
2023-05-02T00:24:10.950Z,10.70
2023-05-02T00:25:10.919Z,9.40
2023-05-02T00:26:10.969Z,6.00
2023-05-02T00:27:10.911Z,8.70
2023-05-02T00:28:10.938Z,7.60
2023-05-02T00:29:10.914Z,6.40
2023-05-02T00:30:10.960Z,7.60
2023-05-02T00:31:10.886Z,5.90
2023-05-02T00:32:10.913Z,6.30
2023-05-02T00:33:10.864Z,6.40
2023-05-02T00:34:10.860Z,5.90
2023-05-02T00:35:10.834Z,6.40
2023-05-02T00:36:10.808Z,7.00
2023-05-02T00:37:10.813Z,7.10
2023-05-02T00:38:10.794Z,5.50
2023-05-02T00:39:10.792Z,6.60
2023-05-02T00:40:10.778Z,6.00
2023-05-02T00:41:10.759Z,6.10
2023-05-02T00:42:10.754Z,6.20
2023-05-02T00:43:10.754Z,5.20
2023-05-02T00:44:10.747Z,5.50
2023-05-02T00:45:10.726Z,5.70
2023-05-02T00:46:10.829Z,6.80
2023-05-02T00:47:10.709Z,4.90
2023-05-02T00:48:10.809Z,7.70
2023-05-02T00:49:10.689Z,6.10
2023-05-02T00:50:10.678Z,6.00
2023-05-02T00:51:10.657Z,5.70
2023-05-02T00:52:10.711Z,6.60
2023-05-02T00:53:10.660Z,6.80
2023-05-02T00:54:10.690Z,5.70
2023-05-02T00:55:10.677Z,5.40
2023-05-02T00:56:10.631Z,6.10
2023-05-02T00:57:10.598Z,5.60
2023-05-02T00:58:10.633Z,5.00
2023-05-02T00:59:10.741Z,4.90
2023-05-02T01:00:10.571Z,6.70
2023-05-02T01:01:10.580Z,4.90
2023-05-02T01:02:10.616Z,5.20
2023-05-02T01:03:10.582Z,5.00
2023-05-02T01:04:10.693Z,5.60
2023-05-02T01:05:10.536Z,5.70
2023-05-02T01:06:10.529Z,6.50
2023-05-02T01:07:10.493Z,5.90
2023-05-02T01:08:10.494Z,5.60
2023-05-02T01:09:10.471Z,4.90
2023-05-02T01:10:10.477Z,5.70
2023-05-02T01:11:10.428Z,6.00
2023-05-02T01:12:10.444Z,6.40
2023-05-02T01:13:10.455Z,6.80
2023-05-02T01:14:10.459Z,5.30
2023-05-02T01:15:10.415Z,5.40
2023-05-02T01:16:10.428Z,5.30
2023-05-02T01:17:10.396Z,5.10
2023-05-02T01:18:10.423Z,5.60
2023-05-02T01:19:10.378Z,6.00
2023-05-02T01:20:10.407Z,6.60
2023-05-02T01:21:10.334Z,5.70
2023-05-02T01:22:10.337Z,6.70
2023-05-02T01:23:10.317Z,5.40
2023-05-02T01:24:10.322Z,5.60
2023-05-02T01:25:10.291Z,6.50
2023-05-02T01:26:10.302Z,5.80
2023-05-02T01:27:10.269Z,7.20
2023-05-02T01:28:10.282Z,5.30
2023-05-02T01:29:10.273Z,6.10
2023-05-02T01:30:10.277Z,5.70
2023-05-02T01:31:10.325Z,5.50
2023-05-02T01:32:10.249Z,5.80
2023-05-02T01:33:10.258Z,5.60
2023-05-02T01:34:10.261Z,5.80
2023-05-02T01:35:10.204Z,5.50
2023-05-02T01:36:10.192Z,5.40
2023-05-02T01:37:10.179Z,8.20
2023-05-02T01:38:10.158Z,7.30
2023-05-02T01:39:10.180Z,5.70
2023-05-02T01:40:10.149Z,6.70
2023-05-02T01:41:10.136Z,5.20
2023-05-02T01:42:10.139Z,5.10
2023-05-02T01:43:10.116Z,5.60
2023-05-02T01:44:10.124Z,6.10
2023-05-02T01:45:10.100Z,5.50
2023-05-02T01:46:10.104Z,7.00
2023-05-02T01:47:10.234Z,5.20
2023-05-02T01:48:10.099Z,4.40
2023-05-02T01:49:10.067Z,6.30
2023-05-02T01:50:10.059Z,5.90
2023-05-02T01:51:10.027Z,5.70
2023-05-02T01:52:10.035Z,5.80
2023-05-02T01:53:10.054Z,6.30
2023-05-02T01:54:10.035Z,6.20
2023-05-02T01:55:09.999Z,5.50
2023-05-02T01:56:10.013Z,5.90
2023-05-02T01:57:09.999Z,5.10
2023-05-02T01:58:09.984Z,5.50
2023-05-02T01:59:09.975Z,5.40
2023-05-02T02:00:09.953Z,5.70
2023-05-02T02:01:10.028Z,5.50
2023-05-02T02:02:09.918Z,5.30
2023-05-02T02:03:09.971Z,5.30
2023-05-02T02:04:09.958Z,4.70
2023-05-02T02:05:09.885Z,5.60
2023-05-02T02:06:09.927Z,7.00
2023-05-02T02:07:09.876Z,8.00
2023-05-02T02:08:09.878Z,6.60
2023-05-02T02:09:09.883Z,5.30
2023-05-02T02:10:09.862Z,6.50
2023-05-02T02:11:09.843Z,7.30
2023-05-02T02:12:09.851Z,5.00
2023-05-02T02:13:09.814Z,4.80
2023-05-02T02:14:09.817Z,6.70
2023-05-02T02:15:09.803Z,4.80
2023-05-02T02:16:09.823Z,6.20
2023-05-02T02:17:09.982Z,6.20
2023-05-02T02:18:09.786Z,6.70
2023-05-02T02:19:09.758Z,5.70
2023-05-02T02:20:09.734Z,5.20
2023-05-02T02:21:09.735Z,5.50
2023-05-02T02:22:09.739Z,5.90
2023-05-02T02:23:09.702Z,5.40
2023-05-02T02:24:09.716Z,5.40
2023-05-02T02:25:09.673Z,6.10
2023-05-02T02:26:09.680Z,5.60
2023-05-02T02:27:09.662Z,5.60
2023-05-02T02:28:09.660Z,5.30
2023-05-02T02:29:09.660Z,5.60
2023-05-02T02:30:09.632Z,6.10
2023-05-02T02:31:09.655Z,6.10
2023-05-02T02:32:09.601Z,5.20
2023-05-02T02:33:09.649Z,5.20
2023-05-02T02:34:09.601Z,5.10
2023-05-02T02:35:09.586Z,5.70
2023-05-02T02:36:09.573Z,5.80
2023-05-02T02:37:09.568Z,4.90
2023-05-02T02:38:09.561Z,7.10
2023-05-02T02:39:09.575Z,6.30
2023-05-02T02:40:09.549Z,5.90
2023-05-02T02:41:09.537Z,5.90
2023-05-02T02:42:09.519Z,5.20
2023-05-02T02:43:09.491Z,6.80
2023-05-02T02:44:10.225Z,5.70
2023-05-02T02:45:09.482Z,6.30
2023-05-02T02:46:09.574Z,7.80
2023-05-02T02:47:09.462Z,5.80
2023-05-02T02:48:09.504Z,6.70
2023-05-02T02:49:09.430Z,5.80
2023-05-02T02:50:09.425Z,5.40
2023-05-02T02:51:09.397Z,6.50
2023-05-02T02:52:09.404Z,8.40
2023-05-02T02:53:09.406Z,7.10
2023-05-02T02:54:22.968Z,7.90
2023-05-02T02:55:09.391Z,6.00
2023-05-02T02:56:09.358Z,6.60
2023-05-02T02:57:09.334Z,5.30
2023-05-02T02:58:09.345Z,7.10
2023-05-02T02:59:09.321Z,6.40
2023-05-02T03:00:09.310Z,6.30
2023-05-02T03:01:09.378Z,6.70
2023-05-02T03:02:09.368Z,7.70
2023-05-02T03:03:09.347Z,5.30
2023-05-02T03:04:09.345Z,8.50
2023-05-02T03:05:09.244Z,6.50
2023-05-02T03:06:09.325Z,5.80
2023-05-02T03:07:09.255Z,6.40
2023-05-02T03:08:09.247Z,6.80
2023-05-02T03:09:09.202Z,5.20
2023-05-02T03:10:09.220Z,5.80
2023-05-02T03:11:09.215Z,6.70
2023-05-02T03:12:09.180Z,6.60
2023-05-02T03:13:09.201Z,6.20
2023-05-02T03:14:09.182Z,5.60
2023-05-02T03:15:09.159Z,5.60
2023-05-02T03:16:09.188Z,5.60
2023-05-02T03:17:09.166Z,6.70
2023-05-02T03:18:09.384Z,7.60
2023-05-02T03:19:09.112Z,5.90
2023-05-02T03:20:09.172Z,9.10
2023-05-02T03:21:09.081Z,8.40
2023-05-02T03:22:09.101Z,6.00
2023-05-02T03:23:09.064Z,6.20
2023-05-02T03:24:09.069Z,7.30
2023-05-02T03:25:09.048Z,6.10
2023-05-02T03:26:09.040Z,6.20
2023-05-02T03:27:09.024Z,7.00
2023-05-02T03:28:09.027Z,7.00
2023-05-02T03:29:09.026Z,7.20
2023-05-02T03:30:09.000Z,6.40
2023-05-02T03:31:09.089Z,9.30
2023-05-02T03:32:09.085Z,7.30
2023-05-02T03:33:09.090Z,7.20
2023-05-02T03:34:09.010Z,6.70
2023-05-02T03:35:08.920Z,7.40
2023-05-02T03:36:08.874Z,8.10
2023-05-02T03:37:08.872Z,5.60
2023-05-02T03:38:08.880Z,5.30
2023-05-02T03:39:08.912Z,6.50
2023-05-02T03:40:08.843Z,7.30
2023-05-02T03:41:08.849Z,6.40
2023-05-02T03:42:08.813Z,5.60
2023-05-02T03:43:08.826Z,6.00
2023-05-02T03:44:08.829Z,5.70
2023-05-02T03:45:08.788Z,6.00
2023-05-02T03:46:08.797Z,7.90
2023-05-02T03:47:08.793Z,6.70
2023-05-02T03:48:08.828Z,5.60
2023-05-02T03:49:08.756Z,6.70
2023-05-02T03:50:08.773Z,6.00
2023-05-02T03:51:08.726Z,5.50
2023-05-02T03:52:08.717Z,5.50
2023-05-02T03:53:08.736Z,7.50
2023-05-02T03:54:08.713Z,6.00
2023-05-02T03:55:08.701Z,6.00
2023-05-02T03:56:08.740Z,6.00
2023-05-02T03:57:08.676Z,6.10
2023-05-02T03:58:08.662Z,5.90
2023-05-02T03:59:08.687Z,6.60
2023-05-02T04:00:08.638Z,6.00
2023-05-02T04:01:08.648Z,5.50
2023-05-02T04:02:08.685Z,6.70
2023-05-02T04:03:08.784Z,6.60
2023-05-02T04:04:08.753Z,7.10
2023-05-02T04:05:08.709Z,6.60
2023-05-02T04:06:08.611Z,6.50
2023-05-02T04:07:08.569Z,6.60
2023-05-02T04:08:08.606Z,6.00
2023-05-02T04:09:08.556Z,7.80
2023-05-02T04:10:08.541Z,7.00
2023-05-02T04:11:08.529Z,6.60
2023-05-02T04:12:08.512Z,6.00
2023-05-02T04:13:08.516Z,8.40
2023-05-02T04:14:08.509Z,5.30
2023-05-02T04:15:08.497Z,7.30
2023-05-02T04:16:08.474Z,5.60
2023-05-02T04:17:08.675Z,8.10
2023-05-02T04:18:08.496Z,6.60
2023-05-02T04:19:08.445Z,6.40
2023-05-02T04:20:08.583Z,5.80
2023-05-02T04:21:08.458Z,5.40
2023-05-02T04:22:08.418Z,6.10
2023-05-02T04:23:08.420Z,5.80
2023-05-02T04:24:08.404Z,6.10
2023-05-02T04:25:08.374Z,6.00
2023-05-02T04:26:08.379Z,5.40
2023-05-02T04:27:08.361Z,5.40
2023-05-02T04:28:08.386Z,6.10
2023-05-02T04:29:08.359Z,6.40
2023-05-02T04:30:08.334Z,5.90
2023-05-02T04:31:08.395Z,5.50
2023-05-02T04:32:08.331Z,7.60
2023-05-02T04:33:08.337Z,7.60
2023-05-02T04:34:08.274Z,6.00
2023-05-02T04:35:08.291Z,6.80
2023-05-02T04:36:08.276Z,6.50
2023-05-02T04:37:08.266Z,5.70
2023-05-02T04:38:08.262Z,5.90
2023-05-02T04:39:08.270Z,6.20
2023-05-02T04:40:08.245Z,5.20
2023-05-02T04:41:09.180Z,6.00
2023-05-02T04:42:08.210Z,5.90
2023-05-02T04:43:08.212Z,7.20
2023-05-02T04:44:08.189Z,6.40
2023-05-02T04:45:08.210Z,5.70
2023-05-02T04:46:08.197Z,5.50
2023-05-02T04:47:08.167Z,6.60
2023-05-02T04:48:08.233Z,6.00
2023-05-02T04:49:08.148Z,6.10
2023-05-02T04:50:08.126Z,6.00
2023-05-02T04:51:08.122Z,6.10
2023-05-02T04:52:08.091Z,6.20
2023-05-02T04:53:08.107Z,5.60
2023-05-02T04:54:08.077Z,6.50
2023-05-02T04:55:08.075Z,6.60
2023-05-02T04:56:08.077Z,6.40
2023-05-02T04:57:08.073Z,5.30
2023-05-02T04:58:08.054Z,6.60
2023-05-02T04:59:08.042Z,7.90
2023-05-02T05:00:08.016Z,7.20
2023-05-02T05:01:08.155Z,6.10
2023-05-02T05:02:08.162Z,9.00
2023-05-02T05:03:08.095Z,6.60
2023-05-02T05:04:08.224Z,13.30
2023-05-02T05:05:08.048Z,12.80
2023-05-02T05:06:08.122Z,15.70
2023-05-02T05:07:07.956Z,15.60
2023-05-02T05:08:08.115Z,13.90
2023-05-02T05:09:07.953Z,11.10
2023-05-02T05:10:07.930Z,9.90
2023-05-02T05:11:07.924Z,9.70
2023-05-02T05:12:07.919Z,9.90
2023-05-02T05:13:07.882Z,10.10
2023-05-02T05:14:07.887Z,10.50
2023-05-02T05:15:07.877Z,9.00
2023-05-02T05:16:07.880Z,11.30
2023-05-02T05:17:07.842Z,9.30
2023-05-02T05:18:07.908Z,12.80
2023-05-02T05:19:07.837Z,9.80
2023-05-02T05:20:09.516Z,9.00
2023-05-02T05:21:07.821Z,8.60
2023-05-02T05:22:07.816Z,7.30
2023-05-02T05:23:07.838Z,7.50
2023-05-02T05:24:07.789Z,7.20
2023-05-02T05:25:07.767Z,7.60
2023-05-02T05:26:07.760Z,6.80
2023-05-02T05:27:07.757Z,6.70
2023-05-02T05:28:07.735Z,8.30
2023-05-02T05:29:07.748Z,6.40
2023-05-02T05:30:07.722Z,7.20
2023-05-02T05:31:07.795Z,8.90
2023-05-02T05:32:07.761Z,7.50
2023-05-02T05:33:07.779Z,9.10
2023-05-02T05:34:07.743Z,9.30
2023-05-02T05:35:07.743Z,13.10
2023-05-02T05:36:07.692Z,14.10
2023-05-02T05:37:07.644Z,12.60
2023-05-02T05:38:07.635Z,9.40
2023-05-02T05:39:07.657Z,7.30
2023-05-02T05:40:07.619Z,8.50
2023-05-02T05:41:07.637Z,7.90
2023-05-02T05:42:07.608Z,6.20
2023-05-02T05:43:07.608Z,7.60
2023-05-02T05:44:07.576Z,8.00
2023-05-02T05:45:07.562Z,8.50
2023-05-02T05:46:07.556Z,8.00
2023-05-02T05:47:07.572Z,9.60
2023-05-02T05:48:07.655Z,7.80
2023-05-02T05:49:07.542Z,8.70
2023-05-02T05:50:07.504Z,9.60
2023-05-02T05:51:07.531Z,9.10
2023-05-02T05:52:07.477Z,7.50
2023-05-02T05:53:07.496Z,9.80
2023-05-02T05:54:07.498Z,10.70
2023-05-02T05:55:07.470Z,8.70
2023-05-02T05:56:07.454Z,8.10
2023-05-02T05:57:07.434Z,7.30
2023-05-02T05:58:07.435Z,9.70
2023-05-02T05:59:07.435Z,7.80
2023-05-02T06:00:07.511Z,10.30
2023-05-02T06:01:07.389Z,10.40
2023-05-02T06:02:07.419Z,8.80
2023-05-02T06:03:09.414Z,8.70
2023-05-02T06:04:07.506Z,8.60
2023-05-02T06:05:07.386Z,9.20
2023-05-02T06:06:07.402Z,7.90
2023-05-02T06:07:07.336Z,9.00
2023-05-02T06:08:07.333Z,6.90
2023-05-02T06:09:07.332Z,9.00
2023-05-02T06:10:07.294Z,10.10
2023-05-02T06:11:07.300Z,10.10
2023-05-02T06:12:07.275Z,7.60
2023-05-02T06:13:07.298Z,9.80
2023-05-02T06:14:07.313Z,9.60
2023-05-02T06:15:07.251Z,8.00
2023-05-02T06:16:07.259Z,7.70
2023-05-02T06:17:07.253Z,8.50
2023-05-02T06:18:07.246Z,9.80
2023-05-02T06:19:07.255Z,8.90
2023-05-02T06:20:07.227Z,8.40
2023-05-02T06:21:07.204Z,8.10
2023-05-02T06:22:07.190Z,8.00
2023-05-02T06:23:07.199Z,10.90
2023-05-02T06:24:07.185Z,9.80
2023-05-02T06:25:07.157Z,9.70
2023-05-02T06:26:07.163Z,7.40
2023-05-02T06:27:07.131Z,11.30
2023-05-02T06:28:07.128Z,9.20
2023-05-02T06:29:07.142Z,8.90
2023-05-02T06:30:07.118Z,10.60
2023-05-02T06:31:07.111Z,10.30
2023-05-02T06:32:07.156Z,8.40
2023-05-02T06:33:07.105Z,8.30
2023-05-02T06:34:07.084Z,8.00
2023-05-02T06:35:07.060Z,8.40
2023-05-02T06:36:07.033Z,9.50
2023-05-02T06:37:07.034Z,9.30
2023-05-02T06:38:07.025Z,9.10
2023-05-02T06:39:07.021Z,8.90
2023-05-02T06:40:06.993Z,8.80
2023-05-02T06:41:06.998Z,8.90
2023-05-02T06:42:06.999Z,10.30
2023-05-02T06:43:06.968Z,9.00
2023-05-02T06:44:06.968Z,12.70
2023-05-02T06:45:06.954Z,8.80
2023-05-02T06:46:06.929Z,9.70
2023-05-02T06:47:06.975Z,10.40
2023-05-02T06:48:06.934Z,9.80
2023-05-02T06:49:06.905Z,10.30
2023-05-02T06:50:06.887Z,9.30
2023-05-02T06:51:06.899Z,10.10
2023-05-02T06:52:06.860Z,10.00
2023-05-02T06:53:06.863Z,9.90
2023-05-02T06:54:07.037Z,9.60
2023-05-02T06:55:06.844Z,10.40
2023-05-02T06:56:06.841Z,13.70
2023-05-02T06:57:06.832Z,11.70
2023-05-02T06:58:06.820Z,11.00
2023-05-02T06:59:06.809Z,10.70
2023-05-02T07:00:06.806Z,11.00
2023-05-02T07:01:06.826Z,11.70
2023-05-02T07:02:06.771Z,11.10
2023-05-02T07:03:06.804Z,12.30
2023-05-02T07:04:06.832Z,10.40
2023-05-02T07:05:06.753Z,10.40
2023-05-02T07:06:06.766Z,10.30
2023-05-02T07:07:06.731Z,13.80
2023-05-02T07:08:06.724Z,13.60
2023-05-02T07:09:06.704Z,10.60
2023-05-02T07:10:06.677Z,10.20
2023-05-02T07:11:06.675Z,11.60
2023-05-02T07:12:07.094Z,12.20
2023-05-02T07:13:06.648Z,14.60
2023-05-02T07:14:06.669Z,10.80
2023-05-02T07:15:06.659Z,11.50
2023-05-02T07:16:06.660Z,12.20
2023-05-02T07:17:06.847Z,12.20
2023-05-02T07:18:06.661Z,12.10
2023-05-02T07:19:06.623Z,13.80
2023-05-02T07:20:06.574Z,10.50
2023-05-02T07:21:06.577Z,11.90
2023-05-02T07:22:06.597Z,12.40
2023-05-02T07:23:06.565Z,12.80
2023-05-02T07:24:06.568Z,11.00
2023-05-02T07:25:06.556Z,11.20
2023-05-02T07:26:06.621Z,12.30
2023-05-02T07:27:06.626Z,8.70
2023-05-02T07:28:06.530Z,12.60
2023-05-02T07:29:06.517Z,10.40
2023-05-02T07:30:06.476Z,11.60
2023-05-02T07:31:06.484Z,13.80
2023-05-02T07:32:06.482Z,14.80
2023-05-02T07:33:06.496Z,11.80
2023-05-02T07:34:06.480Z,13.20
2023-05-02T07:35:06.448Z,12.40
2023-05-02T07:36:06.426Z,14.80
2023-05-02T07:37:06.430Z,12.70
2023-05-02T07:38:06.410Z,13.30
2023-05-02T07:39:06.390Z,13.30
2023-05-02T07:40:06.394Z,12.70
2023-05-02T07:41:06.386Z,14.20
2023-05-02T07:42:06.363Z,13.10
2023-05-02T07:43:06.415Z,13.70
2023-05-02T07:44:06.379Z,13.10
2023-05-02T07:45:06.414Z,14.40
2023-05-02T07:46:06.609Z,15.00
2023-05-02T07:47:06.310Z,13.70
2023-05-02T07:48:06.345Z,12.80
2023-05-02T07:49:06.334Z,12.60
2023-05-02T07:50:06.348Z,15.40
2023-05-02T07:51:06.302Z,12.80
2023-05-02T07:52:06.318Z,13.60
2023-05-02T07:53:06.251Z,14.10
2023-05-02T07:54:06.225Z,13.60
2023-05-02T07:55:06.242Z,14.20
2023-05-02T07:56:06.229Z,13.90
2023-05-02T07:57:06.213Z,15.40
2023-05-02T07:58:06.210Z,15.70
2023-05-02T07:59:06.206Z,16.20
2023-05-02T08:00:06.183Z,16.20
2023-05-02T08:01:06.192Z,15.70
2023-05-02T08:02:06.199Z,21.40
2023-05-02T08:03:06.290Z,17.50
2023-05-02T08:04:06.317Z,20.60
2023-05-02T08:05:06.201Z,17.10
2023-05-02T08:06:06.166Z,17.50
2023-05-02T08:07:06.094Z,20.80
2023-05-02T08:08:06.122Z,21.00
2023-05-02T08:09:06.076Z,20.70
2023-05-02T08:10:06.126Z,20.10
2023-05-02T08:11:06.081Z,21.10
2023-05-02T08:12:06.056Z,21.60
2023-05-02T08:13:06.052Z,20.50
2023-05-02T08:14:06.068Z,22.30
2023-05-02T08:15:06.057Z,22.00
2023-05-02T08:16:06.082Z,19.20
2023-05-02T08:17:06.010Z,20.20
2023-05-02T08:18:06.012Z,20.50
2023-05-02T08:19:05.994Z,21.90
2023-05-02T08:20:05.959Z,20.90
2023-05-02T08:21:06.650Z,20.20
2023-05-02T08:22:05.967Z,20.80
2023-05-02T08:23:06.026Z,21.00
2023-05-02T08:24:06.012Z,21.90
2023-05-02T08:25:05.936Z,22.10
2023-05-02T08:26:05.905Z,20.70
2023-05-02T08:27:05.898Z,21.30
2023-05-02T08:28:05.900Z,23.10
2023-05-02T08:29:05.910Z,21.90
2023-05-02T08:30:06.185Z,20.40
2023-05-02T08:31:05.882Z,19.30
2023-05-02T08:32:05.940Z,22.40
2023-05-02T08:33:05.879Z,25.40
2023-05-02T08:34:05.841Z,22.00
2023-05-02T08:35:05.807Z,22.90
2023-05-02T08:36:05.795Z,20.80
2023-05-02T08:37:05.800Z,22.30
2023-05-02T08:38:05.807Z,23.40
2023-05-02T08:39:05.814Z,22.20
2023-05-02T08:40:05.752Z,25.80
2023-05-02T08:41:05.751Z,22.60
2023-05-02T08:42:05.749Z,20.90
2023-05-02T08:43:05.747Z,26.00
2023-05-02T08:44:05.749Z,21.80
2023-05-02T08:45:05.720Z,28.70
2023-05-02T08:46:05.700Z,22.90
2023-05-02T08:47:05.745Z,22.90
2023-05-02T08:48:05.715Z,23.10
2023-05-02T08:49:05.689Z,21.50
2023-05-02T08:50:05.672Z,20.60
2023-05-02T08:51:05.672Z,23.70
2023-05-02T08:52:05.644Z,23.60
2023-05-02T08:53:05.658Z,22.80
2023-05-02T08:54:05.675Z,21.50
2023-05-02T08:55:05.617Z,22.60
2023-05-02T08:56:05.600Z,22.20
2023-05-02T08:57:05.599Z,21.80
2023-05-02T08:58:05.582Z,23.70
2023-05-02T08:59:05.559Z,23.20
2023-05-02T09:00:05.563Z,19.70
2023-05-02T09:01:05.561Z,23.70
2023-05-02T09:02:05.525Z,22.20
2023-05-02T09:03:05.583Z,22.20
2023-05-02T09:04:05.573Z,21.70
2023-05-02T09:05:05.524Z,20.90
2023-05-02T09:06:05.539Z,21.70
2023-05-02T09:07:05.491Z,24.40
2023-05-02T09:08:05.480Z,23.70
2023-05-02T09:09:05.460Z,22.20
2023-05-02T09:10:05.469Z,20.00
2023-05-02T09:11:05.449Z,20.30
2023-05-02T09:12:05.439Z,19.00
2023-05-02T09:13:05.427Z,23.80
2023-05-02T09:14:05.428Z,20.40
2023-05-02T09:15:05.385Z,22.60
2023-05-02T09:16:05.489Z,17.80
2023-05-02T09:17:05.430Z,21.00
2023-05-02T09:18:05.412Z,21.10
2023-05-02T09:19:05.378Z,19.40
2023-05-02T09:20:05.336Z,19.40
2023-05-02T09:21:05.330Z,20.30
2023-05-02T09:22:05.339Z,21.60
2023-05-02T09:23:05.311Z,19.70
2023-05-02T09:24:05.303Z,19.40
2023-05-02T09:25:05.300Z,19.40
2023-05-02T09:26:05.281Z,17.00
2023-05-02T09:27:05.258Z,18.00
2023-05-02T09:28:05.291Z,19.30
2023-05-02T09:29:05.241Z,17.80
2023-05-02T09:30:05.252Z,22.90
2023-05-02T09:31:05.283Z,20.00
2023-05-02T09:32:05.252Z,20.30
2023-05-02T09:33:05.271Z,19.10
2023-05-02T09:34:05.203Z,22.20
2023-05-02T09:35:05.190Z,22.30
2023-05-02T09:36:05.193Z,20.60
2023-05-02T09:37:05.168Z,21.70
2023-05-02T09:38:05.166Z,18.70
2023-05-02T09:39:05.147Z,19.80
2023-05-02T09:40:05.143Z,18.30
2023-05-02T09:41:05.135Z,20.60
2023-05-02T09:42:05.165Z,19.90
2023-05-02T09:43:05.117Z,21.80
2023-05-02T09:44:05.090Z,19.60
2023-05-02T09:45:05.102Z,23.30
2023-05-02T09:46:05.122Z,18.90
2023-05-02T09:47:05.081Z,18.70
2023-05-02T09:48:05.103Z,20.50
2023-05-02T09:49:05.044Z,23.70
2023-05-02T09:50:05.051Z,17.40
2023-05-02T09:51:05.035Z,20.00
2023-05-02T09:52:05.022Z,20.80
2023-05-02T09:53:05.032Z,21.20
2023-05-02T09:54:04.996Z,20.10
2023-05-02T09:55:04.983Z,20.20
2023-05-02T09:56:05.004Z,22.40
2023-05-02T09:57:04.976Z,18.10
2023-05-02T09:58:04.955Z,19.20
2023-05-02T09:59:04.944Z,20.80
2023-05-02T10:00:04.928Z,18.90
2023-05-02T10:01:04.980Z,18.40
2023-05-02T10:02:05.005Z,19.90
2023-05-02T10:03:04.999Z,19.80
2023-05-02T10:04:04.949Z,21.60
2023-05-02T10:05:04.958Z,19.10
2023-05-02T10:06:04.917Z,18.30
2023-05-02T10:07:05.208Z,20.60
2023-05-02T10:08:04.871Z,17.60
2023-05-02T10:09:04.849Z,19.80
2023-05-02T10:10:04.838Z,18.50
2023-05-02T10:11:04.834Z,19.20
2023-05-02T10:12:04.860Z,19.70
2023-05-02T10:13:04.802Z,21.50
2023-05-02T10:14:04.799Z,19.60
2023-05-02T10:15:04.845Z,18.90
2023-05-02T10:16:04.824Z,18.30
2023-05-02T10:17:04.811Z,19.70
2023-05-02T10:18:04.843Z,17.10
2023-05-02T10:19:04.789Z,19.20
2023-05-02T10:20:04.789Z,19.50
2023-05-02T10:21:04.705Z,19.40
2023-05-02T10:22:04.707Z,21.50
2023-05-02T10:23:04.720Z,17.10
2023-05-02T10:24:04.704Z,20.10
2023-05-02T10:25:04.722Z,19.40
2023-05-02T10:26:04.679Z,17.50
2023-05-02T10:27:04.654Z,17.30
2023-05-02T10:28:04.653Z,17.50
2023-05-02T10:29:04.650Z,18.60
2023-05-02T10:30:04.730Z,16.70
2023-05-02T10:31:04.655Z,20.00
2023-05-02T10:32:04.814Z,17.80
2023-05-02T10:33:04.616Z,19.90
2023-05-02T10:34:04.702Z,16.50
2023-05-02T10:35:04.629Z,17.50
2023-05-02T10:36:04.561Z,16.50
2023-05-02T10:37:04.565Z,17.40
2023-05-02T10:38:04.557Z,16.10
2023-05-02T10:39:04.521Z,16.50
2023-05-02T10:40:04.520Z,16.30
2023-05-02T10:41:04.502Z,15.50
2023-05-02T10:42:04.581Z,17.10
2023-05-02T10:43:04.492Z,16.20
2023-05-02T10:44:04.497Z,12.70
2023-05-02T10:45:04.473Z,12.00
2023-05-02T10:46:04.463Z,15.00
2023-05-02T10:47:04.576Z,16.50
2023-05-02T10:48:04.478Z,13.20
2023-05-02T10:49:04.428Z,13.00
2023-05-02T10:50:04.403Z,11.40
2023-05-02T10:51:04.399Z,13.80
2023-05-02T10:52:04.390Z,14.30
2023-05-02T10:53:04.383Z,13.60
2023-05-02T10:54:04.401Z,13.00
2023-05-02T10:55:04.393Z,12.80
2023-05-02T10:56:04.398Z,12.50
2023-05-02T10:57:04.431Z,13.60
2023-05-02T10:58:04.344Z,14.70
2023-05-02T10:59:04.337Z,15.40
2023-05-02T11:00:04.318Z,13.20
2023-05-02T11:01:04.336Z,14.60
2023-05-02T11:02:06.972Z,14.60
2023-05-02T11:03:04.440Z,15.70
2023-05-02T11:04:04.325Z,15.30
2023-05-02T11:05:04.926Z,15.30
2023-05-02T11:06:04.305Z,14.10
2023-05-02T11:07:04.255Z,12.20
2023-05-02T11:08:04.242Z,13.30
2023-05-02T11:09:04.243Z,15.10
2023-05-02T11:10:04.242Z,12.60
2023-05-02T11:11:04.208Z,16.20
2023-05-02T11:12:04.194Z,11.90
2023-05-02T11:13:04.164Z,10.70
2023-05-02T11:14:04.205Z,14.40
2023-05-02T11:15:04.162Z,12.10
2023-05-02T11:16:04.205Z,13.00
2023-05-02T11:17:04.206Z,11.80
2023-05-02T11:18:04.219Z,16.40
2023-05-02T11:19:04.146Z,13.90
2023-05-02T11:20:04.100Z,13.60
2023-05-02T11:21:04.094Z,12.60
2023-05-02T11:22:04.081Z,12.20
2023-05-02T11:23:04.097Z,15.10
2023-05-02T11:24:04.063Z,14.40
2023-05-02T11:25:04.060Z,12.70
2023-05-02T11:26:04.073Z,12.00
2023-05-02T11:27:04.036Z,15.50
2023-05-02T11:28:04.038Z,15.20
2023-05-02T11:29:04.022Z,13.20
2023-05-02T11:30:04.011Z,14.00
2023-05-02T11:31:03.979Z,14.20
2023-05-02T11:32:04.022Z,15.80
2023-05-02T11:33:04.054Z,15.40
2023-05-02T11:34:03.964Z,13.40
2023-05-02T11:35:03.976Z,12.90
2023-05-02T11:36:03.951Z,16.00
2023-05-02T11:37:03.921Z,14.90
2023-05-02T11:38:03.948Z,13.90
2023-05-02T11:39:03.905Z,16.60
2023-05-02T11:40:03.902Z,13.30
2023-05-02T11:41:03.906Z,12.90
2023-05-02T11:42:03.872Z,13.50
2023-05-02T11:43:03.897Z,15.00
2023-05-02T11:44:03.868Z,15.30
2023-05-02T11:45:04.218Z,15.80
2023-05-02T11:46:03.869Z,13.50
2023-05-02T11:47:03.851Z,13.80
2023-05-02T11:48:03.883Z,13.70
2023-05-02T11:49:04.394Z,15.00
2023-05-02T11:50:03.812Z,13.40
2023-05-02T11:51:03.814Z,15.00
2023-05-02T11:52:03.786Z,15.10
2023-05-02T11:53:03.796Z,15.50
2023-05-02T11:54:03.742Z,13.70
2023-05-02T11:55:04.143Z,13.40
2023-05-02T11:56:03.735Z,12.40
2023-05-02T11:57:03.725Z,12.00
2023-05-02T11:58:03.717Z,13.20
2023-05-02T11:59:03.732Z,15.60
2023-05-02T12:00:03.687Z,15.40
2023-05-02T12:01:03.672Z,15.40
2023-05-02T12:02:03.765Z,12.60
2023-05-02T12:03:03.744Z,17.30
2023-05-02T12:04:03.686Z,12.90
2023-05-02T12:05:04.058Z,15.30
2023-05-02T12:06:03.826Z,13.70
2023-05-02T12:07:03.672Z,14.00
2023-05-02T12:08:03.612Z,15.60
2023-05-02T12:09:03.604Z,14.40
2023-05-02T12:10:03.627Z,15.00
2023-05-02T12:11:03.572Z,14.90
2023-05-02T12:12:03.608Z,14.00
2023-05-02T12:13:03.613Z,14.50
2023-05-02T12:14:03.565Z,13.10
2023-05-02T12:15:03.725Z,13.60
2023-05-02T12:16:03.582Z,15.10
2023-05-02T12:17:03.523Z,13.50
2023-05-02T12:18:03.573Z,14.60
2023-05-02T12:19:03.503Z,16.10
2023-05-02T12:20:03.514Z,15.60
2023-05-02T12:21:03.502Z,18.80
2023-05-02T12:22:03.525Z,17.00
2023-05-02T12:23:03.487Z,15.60
2023-05-02T12:24:03.491Z,16.40
2023-05-02T12:25:03.674Z,15.40
2023-05-02T12:26:03.419Z,16.30
2023-05-02T12:27:03.426Z,14.50
2023-05-02T12:28:03.413Z,17.50
2023-05-02T12:29:03.400Z,15.10
2023-05-02T12:30:04.085Z,17.50
2023-05-02T12:31:03.426Z,18.40
2023-05-02T12:32:03.478Z,18.50
2023-05-02T12:33:03.433Z,20.80
2023-05-02T12:34:03.348Z,19.90
2023-05-02T12:35:03.353Z,18.00
2023-05-02T12:36:03.322Z,19.10
2023-05-02T12:37:03.322Z,15.50
2023-05-02T12:38:03.327Z,19.90
2023-05-02T12:39:03.302Z,17.80
2023-05-02T12:40:03.636Z,15.10
2023-05-02T12:41:03.258Z,17.50
2023-05-02T12:42:03.273Z,16.70
2023-05-02T12:43:03.244Z,17.90
2023-05-02T12:44:03.257Z,16.00
2023-05-02T12:45:03.230Z,18.90
2023-05-02T12:46:03.229Z,16.70
2023-05-02T12:47:03.271Z,17.00
2023-05-02T12:48:03.236Z,17.40
2023-05-02T12:49:03.174Z,18.10
2023-05-02T12:50:03.416Z,19.60
2023-05-02T12:51:03.168Z,19.70
2023-05-02T12:52:03.155Z,18.90
2023-05-02T12:53:03.165Z,19.50
2023-05-02T12:54:03.136Z,18.40
2023-05-02T12:55:03.143Z,19.90
2023-05-02T12:56:03.113Z,18.30
2023-05-02T12:57:03.091Z,20.50
2023-05-02T12:58:03.097Z,18.20
2023-05-02T12:59:03.091Z,17.90
2023-05-02T13:00:03.410Z,19.40
2023-05-02T13:01:03.116Z,19.30
2023-05-02T13:02:03.047Z,19.00
2023-05-02T13:03:03.096Z,20.20
2023-05-02T13:04:03.087Z,18.20
2023-05-02T13:05:03.059Z,15.30